createdAt,value
2022-11-12T00:00:12.767Z,0.00
2022-11-12T00:01:12.715Z,0.00
2022-11-12T00:02:12.715Z,0.00
2022-11-12T00:03:12.699Z,0.00
2022-11-12T00:04:12.701Z,0.00
2022-11-12T00:05:12.669Z,0.00
2022-11-12T00:06:12.694Z,0.00
2022-11-12T00:07:12.736Z,0.00
2022-11-12T00:08:12.664Z,0.00
2022-11-12T00:09:12.626Z,0.00
2022-11-12T00:10:12.625Z,0.00
2022-11-12T00:11:12.624Z,0.00
2022-11-12T00:12:12.642Z,0.00
2022-11-12T00:13:12.637Z,0.00
2022-11-12T00:14:12.578Z,0.00
2022-11-12T00:15:12.567Z,0.00
2022-11-12T00:16:12.570Z,0.00
2022-11-12T00:17:12.598Z,0.00
2022-11-12T00:18:12.628Z,0.00
2022-11-12T00:19:12.519Z,0.00
2022-11-12T00:20:12.527Z,0.00
2022-11-12T00:21:12.501Z,0.00
2022-11-12T00:22:12.490Z,0.00
2022-11-12T00:23:12.469Z,0.00
2022-11-12T00:24:12.513Z,0.00
2022-11-12T00:25:12.452Z,0.00
2022-11-12T00:26:12.461Z,0.00
2022-11-12T00:27:12.430Z,0.00
2022-11-12T00:28:12.422Z,0.00
2022-11-12T00:29:12.414Z,0.00
2022-11-12T00:30:12.442Z,0.00
2022-11-12T00:31:12.415Z,0.00
2022-11-12T00:32:12.382Z,0.00
2022-11-12T00:33:12.374Z,0.00
2022-11-12T00:34:12.353Z,0.00
2022-11-12T00:35:13.959Z,0.00
2022-11-12T00:36:12.390Z,0.00
2022-11-12T00:37:12.323Z,0.00
2022-11-12T00:38:12.322Z,0.00
2022-11-12T00:39:12.295Z,0.00
2022-11-12T00:40:12.315Z,0.00
2022-11-12T00:41:12.282Z,0.00
2022-11-12T00:42:12.325Z,0.00
2022-11-12T00:43:12.257Z,0.00
2022-11-12T00:44:12.253Z,0.00
2022-11-12T00:45:12.238Z,0.00
2022-11-12T00:46:12.236Z,0.00
2022-11-12T00:47:12.224Z,0.00
2022-11-12T00:48:12.284Z,0.00
2022-11-12T00:49:12.196Z,0.00
2022-11-12T00:50:12.207Z,0.00
2022-11-12T00:51:12.212Z,0.00
2022-11-12T00:52:12.172Z,0.00
2022-11-12T00:53:12.164Z,0.00
2022-11-12T00:54:12.197Z,0.00
2022-11-12T00:55:12.140Z,0.00
2022-11-12T00:56:12.150Z,0.00
2022-11-12T00:57:12.110Z,0.00
2022-11-12T00:58:12.108Z,0.00
2022-11-12T00:59:12.090Z,0.00
2022-11-12T01:00:12.123Z,0.00
2022-11-12T01:01:12.198Z,0.00
2022-11-12T01:02:12.098Z,0.00
2022-11-12T01:03:12.042Z,0.00
2022-11-12T01:04:12.043Z,0.00
2022-11-12T01:05:12.031Z,0.00
2022-11-12T01:06:12.031Z,0.00
2022-11-12T01:07:12.132Z,0.00
2022-11-12T01:08:12.000Z,0.00
2022-11-12T01:09:12.012Z,0.00
2022-11-12T01:10:11.974Z,0.00
2022-11-12T01:11:11.983Z,0.00
2022-11-12T01:12:12.002Z,0.00
2022-11-12T01:13:11.953Z,0.00
2022-11-12T01:14:11.921Z,0.00
2022-11-12T01:15:11.971Z,0.00
2022-11-12T01:16:11.904Z,0.00
2022-11-12T01:17:12.043Z,0.00
2022-11-12T01:18:11.885Z,0.00
2022-11-12T01:19:11.867Z,0.00
2022-11-12T01:20:11.854Z,0.00
2022-11-12T01:21:11.858Z,0.00
2022-11-12T01:22:11.833Z,0.00
2022-11-12T01:23:11.848Z,0.00
2022-11-12T01:24:11.828Z,0.00
2022-11-12T01:25:11.805Z,0.00
2022-11-12T01:26:11.842Z,0.00
2022-11-12T01:27:11.807Z,0.00
2022-11-12T01:28:11.783Z,0.00
2022-11-12T01:29:11.752Z,0.00
2022-11-12T01:33:26.065Z,0.00
2022-11-12T01:33:50.199Z,0.00
2022-11-12T01:34:50.115Z,0.00
2022-11-12T01:35:50.126Z,0.00
2022-11-12T01:36:50.126Z,0.00
2022-11-12T01:37:50.126Z,0.00
2022-11-12T01:38:50.130Z,0.00
2022-11-12T01:39:50.116Z,0.00
2022-11-12T01:40:50.084Z,0.00
2022-11-12T01:41:50.091Z,0.00
2022-11-12T01:42:50.059Z,0.00
2022-11-12T01:43:50.052Z,0.00
2022-11-12T01:44:50.063Z,0.00
2022-11-12T01:45:50.041Z,0.00
2022-11-12T01:46:50.011Z,0.00
2022-11-12T01:47:50.009Z,0.00
2022-11-12T01:48:49.981Z,0.00
2022-11-12T01:49:53.394Z,0.00
2022-11-12T01:50:50.981Z,0.00
2022-11-12T01:51:49.969Z,0.00
2022-11-12T01:52:49.961Z,0.00
2022-11-12T01:53:49.928Z,0.00
2022-11-12T01:54:49.911Z,0.00
2022-11-12T01:55:49.921Z,0.00
2022-11-12T01:56:49.925Z,0.00
2022-11-12T01:57:49.903Z,0.00
2022-11-12T01:58:49.948Z,0.00
2022-11-12T01:59:49.874Z,0.00
2022-11-12T02:00:49.890Z,0.00
2022-11-12T02:01:49.982Z,0.00
2022-11-12T02:02:49.856Z,0.00
2022-11-12T02:03:49.815Z,0.00
2022-11-12T02:04:49.813Z,0.00
2022-11-12T02:05:49.802Z,0.00
2022-11-12T02:06:49.839Z,0.00
2022-11-12T02:07:49.791Z,0.00
2022-11-12T02:08:49.806Z,0.00
2022-11-12T02:09:49.763Z,0.00
2022-11-12T02:10:49.799Z,0.00
2022-11-12T02:11:49.726Z,0.00
2022-11-12T02:12:49.715Z,0.00
2022-11-12T02:13:49.720Z,0.00
2022-11-12T02:14:49.696Z,0.00
2022-11-12T02:15:49.702Z,0.00
2022-11-12T02:16:49.688Z,0.00
2022-11-12T02:17:49.681Z,0.00
2022-11-12T02:18:49.705Z,0.00
2022-11-12T02:19:49.672Z,0.00
2022-11-12T02:20:49.651Z,0.00
2022-11-12T02:21:49.635Z,0.00
2022-11-12T02:22:49.627Z,0.00
2022-11-12T02:23:49.615Z,0.00
2022-11-12T02:24:49.629Z,0.00
2022-11-12T02:25:49.612Z,0.00
2022-11-12T02:26:49.582Z,0.00
2022-11-12T02:27:49.558Z,0.00
2022-11-12T02:28:49.557Z,0.00
2022-11-12T02:29:49.538Z,0.00
2022-11-12T02:30:49.562Z,0.00
2022-11-12T02:31:49.533Z,0.00
2022-11-12T02:32:49.497Z,0.00
2022-11-12T02:33:49.517Z,0.00
2022-11-12T02:34:49.519Z,0.00
2022-11-12T02:35:49.475Z,0.00
2022-11-12T02:36:49.479Z,0.00
2022-11-12T02:37:49.452Z,0.00
2022-11-12T02:38:49.499Z,0.00
2022-11-12T02:39:49.454Z,0.00
2022-11-12T02:40:49.454Z,0.00
2022-11-12T02:41:49.414Z,0.00
2022-11-12T02:42:49.415Z,0.00
2022-11-12T02:43:49.399Z,0.00
2022-11-12T02:44:49.416Z,0.00
2022-11-12T02:45:49.365Z,0.00
2022-11-12T02:46:49.382Z,0.00
2022-11-12T02:47:49.344Z,0.00
2022-11-12T02:48:49.347Z,0.00
2022-11-12T02:49:49.326Z,0.00
2022-11-12T02:50:49.311Z,0.00
2022-11-12T02:51:49.306Z,0.00
2022-11-12T02:52:49.314Z,0.00
2022-11-12T02:53:49.335Z,0.00
2022-11-12T02:54:49.272Z,0.00
2022-11-12T02:55:49.369Z,0.00
2022-11-12T02:56:49.246Z,0.00
2022-11-12T02:57:49.255Z,0.00
2022-11-12T02:58:49.265Z,0.00
2022-11-12T02:59:49.217Z,0.00
2022-11-12T03:00:49.248Z,0.00
2022-11-12T03:01:49.185Z,0.00
2022-11-12T03:02:49.196Z,0.00
2022-11-12T03:03:49.173Z,0.00
2022-11-12T03:04:49.684Z,0.00
2022-11-12T03:05:49.155Z,0.00
2022-11-12T03:06:49.191Z,0.00
2022-11-12T03:07:49.132Z,0.00
2022-11-12T03:08:49.130Z,0.00
2022-11-12T03:09:49.148Z,0.00
2022-11-12T03:10:49.099Z,0.00
2022-11-12T03:11:49.087Z,0.00
2022-11-12T03:12:49.082Z,0.00
2022-11-12T03:13:49.068Z,0.00
2022-11-12T03:14:49.140Z,0.00
2022-11-12T03:15:49.056Z,0.00
2022-11-12T03:16:49.051Z,0.00
2022-11-12T03:17:49.154Z,0.00
2022-11-12T03:18:49.020Z,0.00
2022-11-12T03:19:49.005Z,0.00
2022-11-12T03:20:49.021Z,0.00
2022-11-12T03:21:48.976Z,0.00
2022-11-12T03:22:48.982Z,0.00
2022-11-12T03:23:48.962Z,0.00
2022-11-12T03:24:48.978Z,0.00
2022-11-12T03:25:48.963Z,0.00
2022-11-12T03:26:48.931Z,0.00
2022-11-12T03:27:48.958Z,0.00
2022-11-12T03:28:48.914Z,0.00
2022-11-12T03:29:48.917Z,0.00
2022-11-12T03:30:48.883Z,0.00
2022-11-12T03:31:48.893Z,0.00
2022-11-12T03:32:48.896Z,0.00
2022-11-12T03:33:48.850Z,0.00
2022-11-12T03:34:52.904Z,0.00
2022-11-12T03:35:49.826Z,0.00
2022-11-12T03:36:48.822Z,0.00
2022-11-12T03:37:48.833Z,0.00
2022-11-12T03:38:48.806Z,0.00
2022-11-12T03:39:48.784Z,0.00
2022-11-12T03:40:48.784Z,0.00
2022-11-12T03:41:48.766Z,0.00
2022-11-12T03:42:48.758Z,0.00
2022-11-12T03:43:48.781Z,0.00
2022-11-12T03:44:48.747Z,0.00
2022-11-12T03:45:48.726Z,0.00
2022-11-12T03:46:48.736Z,0.00
2022-11-12T03:47:48.727Z,0.00
2022-11-12T03:48:48.686Z,0.00
2022-11-12T03:49:48.668Z,0.00
2022-11-12T03:50:48.668Z,0.00
2022-11-12T03:51:48.667Z,0.00
2022-11-12T03:52:48.682Z,0.00
2022-11-12T03:53:48.639Z,0.00
2022-11-12T03:54:48.618Z,0.00
2022-11-12T03:55:48.627Z,0.00
2022-11-12T03:56:48.599Z,0.00
2022-11-12T03:57:48.589Z,0.00
2022-11-12T03:58:48.589Z,0.00
2022-11-12T03:59:48.569Z,0.00
2022-11-12T04:00:48.619Z,0.00
2022-11-12T04:01:48.576Z,0.00
2022-11-12T04:02:48.532Z,0.00
2022-11-12T04:03:48.544Z,0.00
2022-11-12T04:04:48.520Z,0.00
2022-11-12T04:05:48.490Z,0.00
2022-11-12T04:06:48.583Z,0.00
2022-11-12T04:07:48.588Z,0.00
2022-11-12T04:08:48.482Z,0.00
2022-11-12T04:09:48.486Z,0.00
2022-11-12T04:10:48.450Z,0.00
2022-11-12T04:11:48.457Z,0.00
2022-11-12T04:12:48.432Z,0.00
2022-11-12T04:13:48.443Z,0.00
2022-11-12T04:14:48.405Z,0.00
2022-11-12T04:15:48.416Z,0.00
2022-11-12T04:16:48.375Z,0.00
2022-11-12T04:17:48.364Z,0.00
2022-11-12T04:18:48.373Z,0.00
2022-11-12T04:19:48.360Z,0.00
2022-11-12T04:20:48.389Z,0.00
2022-11-12T04:21:48.342Z,0.00
2022-11-12T04:22:48.370Z,0.00
2022-11-12T04:23:48.306Z,0.00
2022-11-12T04:24:48.324Z,0.00
2022-11-12T04:25:48.325Z,0.00
2022-11-12T04:26:48.265Z,0.00
2022-11-12T04:27:48.287Z,0.00
2022-11-12T04:28:48.271Z,0.00
2022-11-12T04:29:48.245Z,0.00
2022-11-12T04:30:48.225Z,0.00
2022-11-12T04:31:48.252Z,0.00
2022-11-12T04:32:48.215Z,0.00
2022-11-12T04:33:48.219Z,0.00
2022-11-12T04:34:48.252Z,0.00
2022-11-12T04:35:48.192Z,0.00
2022-11-12T04:36:48.191Z,0.00
2022-11-12T04:37:48.160Z,0.00
2022-11-12T04:38:48.152Z,0.00
2022-11-12T04:39:48.168Z,0.00
2022-11-12T04:40:48.138Z,0.00
2022-11-12T04:41:48.133Z,0.00
2022-11-12T04:42:48.141Z,0.00
2022-11-12T04:43:48.103Z,0.00
2022-11-12T04:44:48.090Z,0.00
2022-11-12T04:45:48.063Z,0.00
2022-11-12T04:46:48.095Z,0.00
2022-11-12T04:47:48.053Z,0.00
2022-11-12T04:48:48.046Z,0.00
2022-11-12T04:49:48.026Z,0.00
2022-11-12T04:50:48.018Z,0.00
2022-11-12T04:51:48.068Z,0.00
2022-11-12T04:52:48.000Z,0.00
2022-11-12T04:53:47.994Z,0.00
2022-11-12T04:54:48.004Z,0.00
2022-11-12T04:55:47.971Z,0.00
2022-11-12T04:56:47.945Z,0.00
2022-11-12T04:57:47.976Z,0.00
2022-11-12T04:58:47.932Z,0.00
2022-11-12T04:59:47.925Z,0.00
2022-11-12T05:00:47.910Z,0.00
2022-11-12T05:01:47.924Z,0.00
2022-11-12T05:02:47.922Z,0.00
2022-11-12T05:03:47.887Z,0.00
2022-11-12T05:04:47.871Z,0.00
2022-11-12T05:05:47.879Z,0.00
2022-11-12T05:06:47.880Z,0.00
2022-11-12T05:07:47.849Z,0.00
2022-11-12T05:08:47.895Z,0.00
2022-11-12T05:09:47.813Z,0.00
2022-11-12T05:10:47.806Z,0.00
2022-11-12T05:11:47.787Z,0.00
2022-11-12T05:12:47.763Z,0.00
2022-11-12T05:13:47.753Z,0.00
2022-11-12T05:14:47.778Z,0.00
2022-11-12T05:15:47.834Z,0.00
2022-11-12T05:16:47.735Z,0.00
2022-11-12T05:17:47.727Z,0.00
2022-11-12T05:18:47.714Z,0.00
2022-11-12T05:19:47.697Z,0.00
2022-11-12T05:20:47.733Z,0.00
2022-11-12T05:21:47.695Z,0.00
2022-11-12T05:23:04.565Z,0.00
2022-11-12T05:23:48.680Z,0.00
2022-11-12T05:24:47.648Z,0.00
2022-11-12T05:25:47.641Z,0.00
2022-11-12T05:26:47.663Z,0.00
2022-11-12T05:27:47.639Z,0.00
2022-11-12T05:28:47.603Z,0.00
2022-11-12T05:29:47.599Z,0.00
2022-11-12T05:30:47.591Z,0.00
2022-11-12T05:31:47.620Z,0.00
2022-11-12T05:32:47.592Z,0.00
2022-11-12T05:33:47.560Z,0.00
2022-11-12T05:34:47.544Z,0.00
2022-11-12T05:35:47.559Z,0.00
2022-11-12T05:36:47.528Z,0.00
2022-11-12T05:37:47.542Z,0.00
2022-11-12T05:38:47.500Z,0.00
2022-11-12T05:39:47.506Z,0.00
2022-11-12T05:40:47.494Z,0.00
2022-11-12T05:42:11.505Z,0.00
2022-11-12T05:42:48.486Z,0.00
2022-11-12T05:43:47.455Z,0.00
2022-11-12T05:44:47.440Z,0.00
2022-11-12T05:45:47.423Z,0.00
2022-11-12T05:46:47.412Z,0.00
2022-11-12T05:47:47.392Z,0.00
2022-11-12T05:48:47.395Z,0.00
2022-11-12T05:49:47.423Z,0.00
2022-11-12T05:51:11.509Z,0.00
2022-11-12T05:51:48.343Z,0.00
2022-11-12T05:52:47.418Z,0.00
2022-11-12T05:53:47.485Z,0.00
2022-11-12T05:54:47.314Z,0.00
2022-11-12T05:55:47.311Z,0.00
2022-11-12T05:56:47.305Z,0.00
2022-11-12T05:57:47.353Z,0.00
2022-11-12T05:58:47.303Z,0.00
2022-11-12T05:59:47.297Z,0.00
2022-11-12T06:00:47.260Z,0.00
2022-11-12T06:01:47.297Z,0.00
2022-11-12T06:02:47.298Z,0.00
2022-11-12T06:03:47.237Z,0.00
2022-11-12T06:04:47.286Z,0.00
2022-11-12T06:05:47.232Z,0.00
2022-11-12T06:06:47.262Z,0.00
2022-11-12T06:07:47.212Z,0.00
2022-11-12T06:08:47.170Z,0.00
2022-11-12T06:09:47.200Z,0.00
2022-11-12T06:10:47.161Z,0.00
2022-11-12T06:11:47.161Z,0.00
2022-11-12T06:12:47.136Z,0.00
2022-11-12T06:13:47.118Z,0.00
2022-11-12T06:14:47.137Z,0.00
2022-11-12T06:15:47.104Z,0.00
2022-11-12T06:16:47.079Z,0.00
2022-11-12T06:17:47.101Z,0.00
2022-11-12T06:18:47.093Z,0.00
2022-11-12T06:19:47.121Z,0.00
2022-11-12T06:20:47.123Z,0.00
2022-11-12T06:21:47.041Z,0.00
2022-11-12T06:22:47.025Z,0.00
2022-11-12T06:23:47.031Z,0.00
2022-11-12T06:24:47.015Z,0.00
2022-11-12T06:25:47.137Z,0.00
2022-11-12T06:26:46.983Z,0.00
2022-11-12T06:27:46.973Z,0.00
2022-11-12T06:28:47.012Z,0.00
2022-11-12T06:29:46.964Z,0.00
2022-11-12T06:30:46.953Z,0.00
2022-11-12T06:31:47.104Z,0.00
2022-11-12T06:32:47.279Z,0.00
2022-11-12T06:33:47.371Z,0.00
2022-11-12T06:34:46.984Z,0.00
2022-11-12T06:35:47.797Z,0.00
2022-11-12T06:36:47.007Z,0.00
2022-11-12T06:37:47.104Z,0.00
2022-11-12T06:38:47.007Z,0.00
2022-11-12T06:39:46.893Z,0.00
2022-11-12T06:40:46.901Z,0.00
2022-11-12T06:41:46.879Z,0.00
2022-11-12T06:42:46.916Z,0.00
2022-11-12T06:43:47.005Z,0.00
2022-11-12T06:44:46.931Z,0.00
2022-11-12T06:45:47.270Z,0.00
2022-11-12T06:46:46.886Z,0.00
2022-11-12T06:47:46.858Z,0.00
2022-11-12T06:48:46.828Z,4.00
2022-11-12T06:49:46.919Z,4.00
2022-11-12T06:50:46.821Z,4.00
2022-11-12T06:51:46.790Z,4.00
2022-11-12T06:52:46.791Z,4.00
2022-11-12T06:53:46.839Z,4.00
2022-11-12T06:54:46.791Z,4.00
2022-11-12T06:55:46.801Z,4.00
2022-11-12T06:56:47.049Z,4.00
2022-11-12T06:57:46.642Z,0.00
2022-11-12T06:58:46.752Z,0.00
2022-11-12T06:59:46.645Z,4.00
2022-11-12T07:00:46.723Z,4.00
2022-11-12T07:01:46.746Z,0.00
2022-11-12T07:02:46.623Z,4.00
2022-11-12T07:03:46.611Z,4.00
2022-11-12T07:04:46.615Z,4.00
2022-11-12T07:05:46.573Z,0.00
2022-11-12T07:06:46.612Z,4.00
2022-11-12T07:07:46.630Z,4.00
2022-11-12T07:08:46.575Z,4.00
2022-11-12T07:09:46.526Z,0.00
2022-11-12T07:10:46.541Z,4.00
2022-11-12T07:11:46.533Z,4.00
2022-11-12T07:12:52.019Z,4.00
2022-11-12T07:13:47.504Z,4.00
2022-11-12T07:14:46.504Z,4.00
2022-11-12T07:15:46.553Z,4.00
2022-11-12T07:16:46.588Z,4.00
2022-11-12T07:21:34.845Z,4.00
2022-11-12T07:22:34.828Z,4.00
2022-11-12T07:23:34.848Z,4.00
2022-11-12T07:24:34.822Z,4.00
2022-11-12T07:25:34.866Z,8.00
2022-11-12T07:26:34.822Z,4.00
2022-11-12T07:27:34.791Z,4.00
2022-11-12T07:28:34.781Z,8.00
2022-11-12T07:29:47.556Z,8.00
2022-11-12T07:30:35.767Z,8.00
2022-11-12T07:31:34.740Z,8.00
2022-11-12T07:32:39.946Z,8.00
2022-11-12T07:33:35.722Z,4.00
2022-11-12T07:34:34.711Z,4.00
2022-11-12T07:35:34.704Z,4.00
2022-11-12T07:36:34.683Z,4.00
2022-11-12T07:37:34.681Z,4.00
2022-11-12T07:38:34.745Z,4.00
2022-11-12T07:39:34.664Z,4.00
2022-11-12T07:40:34.654Z,4.00
2022-11-12T07:41:34.685Z,8.00
2022-11-12T07:42:34.634Z,4.00
2022-11-12T07:43:34.622Z,4.00
2022-11-12T07:44:34.655Z,4.00
2022-11-12T07:45:34.606Z,4.00
2022-11-12T07:46:34.598Z,4.00
2022-11-12T07:47:34.585Z,4.00
2022-11-12T07:48:34.556Z,8.00
2022-11-12T07:49:34.598Z,8.00
2022-11-12T07:50:34.575Z,8.00
2022-11-12T07:51:34.545Z,8.00
2022-11-12T07:52:34.528Z,8.00
2022-11-12T07:53:34.507Z,4.00
2022-11-12T07:54:34.498Z,4.00
2022-11-12T07:55:34.497Z,8.00
2022-11-12T07:56:34.499Z,8.00
2022-11-12T07:57:34.480Z,8.00
2022-11-12T07:58:34.448Z,8.00
2022-11-12T07:59:34.439Z,8.00
2022-11-12T08:00:34.431Z,8.00
2022-11-12T08:01:34.511Z,8.00
2022-11-12T08:02:34.410Z,12.00
2022-11-12T08:03:34.561Z,12.00
2022-11-12T08:04:34.465Z,12.00
2022-11-12T08:05:34.381Z,12.00
2022-11-12T08:06:34.498Z,8.00
2022-11-12T08:07:34.443Z,8.00
2022-11-12T08:08:34.336Z,8.00
2022-11-12T08:09:34.319Z,8.00
2022-11-12T08:10:34.322Z,8.00
2022-11-12T08:11:34.332Z,8.00
2022-11-12T08:12:34.315Z,12.00
2022-11-12T08:13:34.340Z,12.00
2022-11-12T08:14:34.282Z,12.00
2022-11-12T08:15:34.268Z,16.00
2022-11-12T08:16:34.302Z,12.00
2022-11-12T08:17:34.251Z,12.00
2022-11-12T08:18:34.252Z,12.00
2022-11-12T08:19:34.252Z,12.00
2022-11-12T08:20:34.214Z,12.00
2022-11-12T08:21:34.204Z,16.00
2022-11-12T08:22:34.201Z,12.00
2022-11-12T08:23:34.191Z,12.00
2022-11-12T08:24:34.164Z,12.00
2022-11-12T08:25:34.176Z,16.00
2022-11-12T08:26:34.156Z,12.00
2022-11-12T08:27:34.152Z,12.00
2022-11-12T08:28:34.121Z,12.00
2022-11-12T08:29:34.114Z,16.00
2022-11-12T08:30:34.095Z,16.00
2022-11-12T08:31:34.137Z,12.00
2022-11-12T08:32:34.084Z,16.00
2022-11-12T08:33:34.074Z,12.00
2022-11-12T08:34:34.078Z,16.00
2022-11-12T08:35:34.077Z,16.00
2022-11-12T08:36:34.079Z,16.00
2022-11-12T08:37:34.041Z,16.00
2022-11-12T08:38:34.027Z,16.00
2022-11-12T08:39:34.009Z,16.00
2022-11-12T08:40:34.029Z,16.00
2022-11-12T08:41:33.988Z,20.00
2022-11-12T08:42:33.986Z,20.00
2022-11-12T08:43:33.957Z,16.00
2022-11-12T08:44:34.013Z,16.00
2022-11-12T08:45:33.988Z,20.00
2022-11-12T08:46:34.388Z,16.00
2022-11-12T08:47:33.928Z,16.00
2022-11-12T08:48:33.933Z,20.00
2022-11-12T08:49:34.210Z,20.00
2022-11-12T08:50:33.887Z,20.00
2022-11-12T08:51:34.732Z,20.00
2022-11-12T08:52:34.227Z,16.00
2022-11-12T08:53:33.862Z,16.00
2022-11-12T08:54:33.838Z,20.00
2022-11-12T08:55:34.037Z,16.00
2022-11-12T08:56:33.842Z,16.00
2022-11-12T08:57:33.814Z,16.00
2022-11-12T08:58:33.832Z,16.00
2022-11-12T08:59:33.802Z,16.00
2022-11-12T09:00:33.944Z,16.00
2022-11-12T09:01:33.852Z,20.00
2022-11-12T09:02:33.776Z,20.00
2022-11-12T09:03:33.760Z,20.00
2022-11-12T09:04:33.745Z,20.00
2022-11-12T09:05:33.733Z,12.00
2022-11-12T09:06:33.709Z,16.00
2022-11-12T09:07:49.389Z,16.00
2022-11-12T09:08:34.738Z,16.00
2022-11-12T09:09:33.709Z,16.00
2022-11-12T09:10:33.713Z,12.00
2022-11-12T09:11:33.654Z,16.00
2022-11-12T09:12:33.644Z,16.00
2022-11-12T09:13:33.752Z,16.00
2022-11-12T09:14:33.815Z,16.00
2022-11-12T09:15:38.344Z,12.00
2022-11-12T09:16:34.606Z,16.00
2022-11-12T09:17:33.595Z,16.00
2022-11-12T09:18:33.606Z,16.00
2022-11-12T09:19:33.910Z,16.00
2022-11-12T09:20:33.607Z,12.00
2022-11-12T09:21:33.546Z,12.00
2022-11-12T09:22:33.530Z,16.00
2022-11-12T09:23:33.528Z,16.00
2022-11-12T09:24:33.727Z,16.00
2022-11-12T09:25:33.680Z,16.00
2022-11-12T09:26:33.489Z,16.00
2022-11-12T09:27:33.500Z,12.00
2022-11-12T09:28:33.519Z,12.00
2022-11-12T09:29:33.474Z,12.00
2022-11-12T09:30:33.603Z,12.00
2022-11-12T09:31:33.591Z,16.00
2022-11-12T09:32:33.477Z,16.00
2022-11-12T09:33:33.430Z,16.00
2022-11-12T09:34:33.398Z,16.00
2022-11-12T09:35:33.390Z,16.00
2022-11-12T09:36:38.624Z,20.00
2022-11-12T09:37:34.460Z,20.00
2022-11-12T09:38:33.363Z,24.00
2022-11-12T09:39:33.378Z,24.00
2022-11-12T09:41:50.509Z,28.00
2022-11-12T09:42:50.512Z,32.00
2022-11-12T09:43:50.479Z,32.00
2022-11-12T09:44:50.504Z,32.00
2022-11-12T09:46:13.459Z,32.00
2022-11-12T09:46:51.478Z,28.00
2022-11-12T09:47:50.419Z,36.00
2022-11-12T09:48:50.450Z,36.00
2022-11-12T09:49:50.411Z,40.00
2022-11-12T09:50:50.401Z,36.00
2022-11-12T09:51:50.389Z,40.00
2022-11-12T09:52:50.394Z,40.00
2022-11-12T09:53:50.397Z,40.00
2022-11-12T09:54:50.358Z,44.00
2022-11-12T09:55:50.330Z,36.00
2022-11-12T09:56:50.334Z,44.00
2022-11-12T09:57:50.315Z,40.00
2022-11-12T09:58:50.321Z,36.00
2022-11-12T09:59:50.381Z,40.00
2022-11-12T10:00:50.316Z,40.00
2022-11-12T10:01:50.406Z,32.00
2022-11-12T10:02:50.306Z,32.00
2022-11-12T10:03:50.255Z,32.00
2022-11-12T10:04:50.271Z,32.00
2022-11-12T10:05:50.252Z,32.00
2022-11-12T10:06:50.257Z,28.00
2022-11-12T10:07:50.342Z,28.00
2022-11-12T10:08:50.260Z,28.00
2022-11-12T10:09:50.237Z,32.00
2022-11-12T10:10:50.203Z,28.00
2022-11-12T10:11:50.278Z,28.00
2022-11-12T10:12:50.155Z,24.00
2022-11-12T10:13:50.163Z,24.00
2022-11-12T10:14:50.153Z,24.00
2022-11-12T10:15:50.144Z,20.00
2022-11-12T10:16:50.117Z,24.00
2022-11-12T10:17:50.197Z,28.00
2022-11-12T10:18:50.119Z,28.00
2022-11-12T10:19:50.110Z,32.00
2022-11-12T10:20:50.098Z,36.00
2022-11-12T10:21:50.062Z,40.00
2022-11-12T10:22:50.076Z,36.00
2022-11-12T10:23:50.106Z,36.00
2022-11-12T10:24:50.058Z,32.00
2022-11-12T10:25:50.028Z,32.00
2022-11-12T10:26:50.035Z,36.00
2022-11-12T10:27:50.030Z,32.00
2022-11-12T10:28:50.010Z,32.00
2022-11-12T10:29:50.019Z,36.00
2022-11-12T10:30:49.958Z,32.00
2022-11-12T10:31:49.938Z,32.00
2022-11-12T10:32:49.941Z,32.00
2022-11-12T10:33:49.919Z,32.00
2022-11-12T10:34:49.918Z,36.00
2022-11-12T10:35:49.910Z,36.00
2022-11-12T10:36:49.901Z,32.00
2022-11-12T10:37:49.892Z,32.00
2022-11-12T10:38:49.881Z,32.00
2022-11-12T10:39:49.875Z,28.00
2022-11-12T10:40:49.935Z,32.00
2022-11-12T10:41:49.851Z,32.00
2022-11-12T10:42:49.909Z,36.00
2022-11-12T10:43:49.832Z,36.00
2022-11-12T10:44:49.891Z,36.00
2022-11-12T10:45:49.855Z,36.00
2022-11-12T10:46:49.822Z,36.00
2022-11-12T10:47:49.790Z,40.00
2022-11-12T10:48:49.803Z,40.00
2022-11-12T10:49:49.782Z,36.00
2022-11-12T10:50:49.765Z,36.00
2022-11-12T10:51:49.724Z,36.00
2022-11-12T10:52:49.796Z,40.00
2022-11-12T10:53:49.747Z,36.00
2022-11-12T10:54:54.873Z,36.00
2022-11-12T10:55:50.715Z,36.00
2022-11-12T10:56:57.226Z,36.00
2022-11-12T10:57:49.664Z,40.00
2022-11-12T10:58:51.457Z,40.00
2022-11-12T10:59:49.677Z,44.00
2022-11-12T11:00:49.677Z,40.00
2022-11-12T11:01:49.733Z,36.00
2022-11-12T11:02:49.652Z,36.00
2022-11-12T11:03:49.625Z,40.00
2022-11-12T11:04:49.612Z,36.00
2022-11-12T11:05:49.580Z,40.00
2022-11-12T11:06:49.654Z,36.00
2022-11-12T11:07:49.549Z,40.00
2022-11-12T11:08:49.592Z,36.00
2022-11-12T11:09:49.538Z,36.00
2022-11-12T11:10:49.595Z,40.00
2022-11-12T11:11:49.510Z,40.00
2022-11-12T11:12:49.549Z,40.00
2022-11-12T11:13:55.278Z,36.00
2022-11-12T11:14:50.520Z,36.00
2022-11-12T11:15:49.521Z,36.00
2022-11-12T11:16:49.500Z,36.00
2022-11-12T11:17:49.482Z,40.00
2022-11-12T11:18:49.553Z,44.00
2022-11-12T11:19:49.482Z,44.00
2022-11-12T11:20:49.572Z,40.00
2022-11-12T11:21:49.461Z,40.00
2022-11-12T11:22:49.431Z,40.00
2022-11-12T11:23:49.412Z,44.00
2022-11-12T11:24:49.414Z,40.00
2022-11-12T11:25:49.390Z,40.00
2022-11-12T11:26:49.380Z,40.00
2022-11-12T11:27:49.384Z,40.00
2022-11-12T11:28:49.365Z,40.00
2022-11-12T11:29:49.404Z,40.00
2022-11-12T11:30:49.332Z,40.00
2022-11-12T11:31:49.326Z,40.00
2022-11-12T11:32:49.315Z,40.00
2022-11-12T11:33:49.316Z,48.00
2022-11-12T11:34:49.329Z,44.00
2022-11-12T11:35:49.265Z,44.00
2022-11-12T11:36:49.268Z,44.00
2022-11-12T11:37:49.258Z,44.00
2022-11-12T11:38:49.248Z,40.00
2022-11-12T11:39:49.300Z,36.00
2022-11-12T11:40:49.216Z,32.00
2022-11-12T11:41:49.232Z,32.00
2022-11-12T11:42:49.186Z,36.00
2022-11-12T11:43:49.196Z,36.00
2022-11-12T11:44:49.218Z,36.00
2022-11-12T11:45:49.239Z,36.00
2022-11-12T11:46:49.155Z,40.00
2022-11-12T11:48:01.275Z,36.00
2022-11-12T11:48:50.150Z,32.00
2022-11-12T11:49:49.119Z,28.00
2022-11-12T11:50:49.169Z,28.00
2022-11-12T11:51:49.101Z,28.00
2022-11-12T11:52:49.082Z,28.00
2022-11-12T11:53:49.085Z,32.00
2022-11-12T11:54:49.099Z,36.00
2022-11-12T11:55:49.084Z,36.00
2022-11-12T11:56:49.108Z,40.00
2022-11-12T11:57:49.023Z,40.00
2022-11-12T11:58:49.030Z,36.00
2022-11-12T11:59:49.042Z,32.00
2022-11-12T12:00:50.816Z,28.00
2022-11-12T12:01:48.980Z,28.00
2022-11-12T12:02:48.971Z,28.00
2022-11-12T12:03:49.141Z,24.00
2022-11-12T12:04:48.949Z,28.00
2022-11-12T12:05:48.998Z,28.00
2022-11-12T12:06:49.036Z,32.00
2022-11-12T12:07:48.940Z,28.00
2022-11-12T12:08:48.948Z,28.00
2022-11-12T12:09:48.923Z,24.00
2022-11-12T12:11:49.872Z,28.00
2022-11-12T12:12:48.891Z,28.00
2022-11-12T12:13:48.901Z,24.00
2022-11-12T12:14:48.896Z,24.00
2022-11-12T12:15:48.828Z,24.00
2022-11-12T12:16:48.914Z,20.00
2022-11-12T12:17:48.832Z,24.00
2022-11-12T12:18:48.835Z,20.00
2022-11-12T12:19:48.777Z,20.00
2022-11-12T12:20:48.835Z,20.00
2022-11-12T12:21:48.810Z,24.00
2022-11-12T12:22:48.756Z,32.00
2022-11-12T12:23:48.772Z,28.00
2022-11-12T12:24:48.787Z,32.00
2022-11-12T12:25:48.718Z,28.00
2022-11-12T12:26:48.708Z,28.00
2022-11-12T12:27:48.738Z,24.00
2022-11-12T12:28:48.697Z,24.00
2022-11-12T12:29:48.729Z,24.00
2022-11-12T12:30:48.688Z,24.00
2022-11-12T12:31:48.649Z,24.00
2022-11-12T12:32:48.696Z,24.00
2022-11-12T12:33:48.686Z,20.00
2022-11-12T12:34:48.617Z,20.00
2022-11-12T12:35:56.168Z,24.00
2022-11-12T12:36:48.639Z,24.00
2022-11-12T12:37:48.592Z,20.00
2022-11-12T12:38:48.599Z,16.00
2022-11-12T12:39:48.610Z,16.00
2022-11-12T12:40:48.569Z,16.00
2022-11-12T12:41:48.538Z,12.00
2022-11-12T12:42:48.535Z,16.00
2022-11-12T12:43:48.533Z,16.00
2022-11-12T12:44:48.509Z,12.00
2022-11-12T12:45:48.528Z,16.00
2022-11-12T12:46:48.492Z,16.00
2022-11-12T12:47:48.531Z,16.00
2022-11-12T12:48:48.494Z,16.00
2022-11-12T12:49:48.485Z,16.00
2022-11-12T12:50:48.507Z,20.00
2022-11-12T12:51:54.490Z,16.00
2022-11-12T12:52:49.443Z,20.00
2022-11-12T12:53:48.442Z,16.00
2022-11-12T12:54:48.417Z,16.00
2022-11-12T12:55:48.415Z,16.00
2022-11-12T12:56:48.398Z,16.00
2022-11-12T12:57:48.416Z,16.00
2022-11-12T12:58:48.395Z,16.00
2022-11-12T12:59:48.378Z,12.00
2022-11-12T13:00:48.476Z,12.00
2022-11-12T13:01:48.335Z,12.00
2022-11-12T13:02:48.365Z,12.00
2022-11-12T13:03:48.368Z,12.00
2022-11-12T13:04:48.316Z,12.00
2022-11-12T13:05:48.282Z,12.00
2022-11-12T13:06:48.336Z,12.00
2022-11-12T13:07:48.316Z,16.00
2022-11-12T13:08:48.300Z,16.00
2022-11-12T13:09:48.273Z,16.00
2022-11-12T13:10:48.288Z,16.00
2022-11-12T13:11:48.329Z,16.00
2022-11-12T13:12:48.268Z,16.00
2022-11-12T13:13:48.282Z,12.00
2022-11-12T13:14:48.208Z,12.00
2022-11-12T13:15:48.296Z,12.00
2022-11-12T13:16:48.199Z,12.00